createdAt,value
2019-04-23T00:04:05.506Z,2.90
2019-04-23T00:09:07.443Z,2.92
2019-04-23T00:11:30.813Z,2.60
2019-04-23T00:14:01.274Z,3.15
2019-04-23T00:16:31.364Z,2.65
2019-04-23T00:18:57.449Z,3.10
2019-04-23T00:21:40.507Z,2.87
2019-04-23T00:24:17.505Z,2.60
2019-04-23T00:26:42.678Z,2.70
2019-04-23T00:29:20.908Z,3.02
2019-04-23T00:31:56.175Z,2.60
2019-04-23T00:34:16.073Z,2.72
2019-04-23T00:36:51.367Z,2.55
2019-04-23T00:39:23.424Z,3.00
2019-04-23T00:41:57.529Z,2.77
2019-04-23T00:44:32.451Z,2.77
2019-04-23T00:46:56.414Z,3.12
2019-04-23T00:49:34.497Z,2.67
2019-04-23T00:52:07.533Z,2.47
2019-04-23T00:54:35.730Z,2.90
2019-04-23T00:57:13.430Z,2.95
2019-04-23T01:02:14.193Z,3.10
2019-04-23T01:04:41.071Z,2.90
2019-04-23T01:07:16.395Z,3.05
2019-04-23T01:09:49.239Z,2.75
2019-04-23T01:12:22.813Z,2.80
2019-04-23T01:14:48.214Z,2.87
2019-04-23T01:17:26.190Z,2.70
2019-04-23T01:19:49.581Z,2.62
2019-04-23T01:22:10.750Z,2.70
2019-04-23T01:24:52.833Z,2.60
2019-04-23T01:28:04.398Z,2.40
2019-04-23T01:30:19.836Z,2.90
2019-04-23T01:32:55.141Z,2.62
2019-04-23T01:37:55.694Z,2.67
2019-04-23T01:40:34.767Z,2.80
2019-04-23T01:43:01.667Z,2.67
2019-04-23T01:45:27.100Z,3.08
2019-04-23T01:48:00.063Z,2.80
2019-04-23T01:50:43.367Z,2.95
2019-04-23T01:53:14.978Z,2.87
2019-04-23T01:55:45.443Z,2.60
2019-04-23T01:58:26.147Z,2.62
2019-04-23T02:00:51.334Z,2.40
2019-04-23T02:03:15.484Z,2.45
2019-04-23T02:05:48.355Z,2.65
2019-04-23T02:08:20.987Z,2.60
2019-04-23T02:13:32.356Z,3.25
2019-04-23T02:15:53.468Z,2.65
2019-04-23T02:18:32.229Z,2.72
2019-04-23T02:21:16.894Z,3.15
2019-04-23T02:23:39.811Z,2.70
2019-04-23T02:26:09.032Z,2.58
2019-04-23T02:28:47.598Z,2.47
2019-04-23T02:33:54.204Z,2.80
2019-04-23T02:36:14.400Z,2.85
2019-04-23T02:41:26.722Z,2.98
2019-04-23T02:44:09.134Z,2.85
2019-04-23T02:46:18.096Z,2.90
2019-04-23T02:59:10.300Z,2.62
2019-04-23T03:01:31.793Z,2.72
2019-04-23T03:09:12.865Z,2.58
2019-04-23T03:14:15.558Z,2.65
2019-04-23T03:16:56.276Z,2.98
2019-04-23T03:22:03.380Z,2.67
2019-04-23T03:24:54.948Z,2.75
2019-04-23T03:29:51.283Z,2.52
2019-04-23T03:32:45.758Z,2.50
2019-04-23T03:37:25.973Z,3.00
2019-04-23T03:39:56.559Z,2.33
2019-04-23T03:42:17.316Z,2.25
2019-04-23T03:45:00.770Z,2.50
2019-04-23T03:47:45.205Z,2.62
2019-04-23T03:52:44.602Z,2.40
2019-04-23T03:55:23.729Z,2.30
2019-04-23T04:00:33.235Z,2.40
2019-04-23T04:03:01.242Z,2.37
2019-04-23T04:05:31.344Z,2.62
2019-04-23T04:10:24.370Z,2.47
2019-04-23T04:12:56.881Z,2.70
2019-04-23T04:25:44.866Z,2.58
2019-04-23T04:30:43.458Z,2.50
2019-04-23T04:36:14.249Z,2.70
2019-04-23T04:38:36.395Z,2.60
2019-04-23T04:43:31.842Z,2.50
2019-04-23T04:46:17.362Z,2.30
2019-04-23T04:48:34.481Z,2.62
2019-04-23T04:51:08.046Z,2.60
2019-04-23T04:56:14.017Z,2.15
2019-04-23T04:58:46.841Z,2.67
2019-04-23T05:03:29.192Z,2.20
2019-04-23T05:11:24.145Z,2.30
2019-04-23T05:13:57.864Z,2.25
2019-04-23T05:18:53.504Z,2.58
2019-04-23T05:21:21.384Z,2.10
2019-04-23T05:26:25.155Z,2.40
2019-04-23T05:29:00.823Z,2.47
2019-04-23T05:31:31.043Z,2.37
2019-04-23T05:34:02.580Z,2.60
2019-04-23T05:36:32.412Z,2.10
2019-04-23T05:39:07.673Z,2.33
2019-04-23T05:44:10.917Z,2.27
2019-04-23T05:51:48.876Z,2.12
2019-04-23T05:54:12.546Z,2.30
2019-04-23T05:56:44.322Z,2.60
2019-04-23T05:59:17.803Z,2.55
2019-04-23T06:01:54.000Z,2.67
2019-04-23T06:07:08.748Z,2.33
2019-04-23T06:09:20.379Z,2.52
2019-04-23T06:14:28.410Z,2.08
2019-04-23T06:17:03.463Z,2.10
2019-04-23T06:19:21.227Z,2.40
2019-04-23T06:32:04.638Z,2.52
2019-04-23T06:34:41.161Z,2.40
2019-04-23T06:37:13.914Z,2.45
2019-04-23T06:39:55.174Z,2.50
2019-04-23T06:42:23.416Z,2.45
2019-04-23T06:44:57.645Z,2.30
2019-04-23T06:47:29.826Z,2.30
2019-04-23T06:49:55.538Z,2.20
2019-04-23T06:52:24.736Z,2.72
2019-04-23T06:57:25.912Z,2.30
2019-04-23T07:02:42.227Z,2.15
2019-04-23T07:05:14.066Z,2.27
2019-04-23T07:10:10.083Z,2.17
2019-04-23T07:12:41.469Z,2.02
2019-04-23T07:15:30.612Z,2.15
2019-04-23T07:17:41.054Z,2.27
2019-04-23T07:22:53.665Z,2.55
2019-04-23T07:25:17.594Z,2.40
2019-04-23T07:27:49.348Z,2.25
2019-04-23T07:30:32.943Z,2.40
2019-04-23T07:33:01.857Z,2.12
2019-04-23T07:35:24.485Z,2.65
2019-04-23T07:38:08.931Z,2.30
2019-04-23T07:40:48.238Z,2.35
2019-04-23T07:43:14.462Z,2.40
2019-04-23T07:46:12.138Z,2.30
2019-04-23T07:48:27.648Z,2.67
2019-04-23T07:51:06.418Z,2.33
2019-04-23T07:53:49.698Z,2.52
2019-04-23T07:56:15.790Z,2.30
2019-04-23T07:58:39.306Z,2.10
2019-04-23T08:01:14.179Z,2.30
2019-04-23T08:03:48.377Z,2.42
2019-04-23T08:06:17.938Z,3.02
2019-04-23T08:13:58.702Z,2.80
2019-04-23T08:16:33.560Z,2.90
2019-04-23T08:21:32.046Z,2.20
2019-04-23T08:24:17.758Z,2.27
2019-04-23T08:27:04.653Z,2.58
2019-04-23T08:29:28.117Z,2.85
2019-04-23T08:32:06.913Z,2.50
2019-04-23T08:34:48.386Z,2.33
2019-04-23T08:37:09.044Z,2.60
2019-04-23T08:42:33.351Z,2.22
2019-04-23T08:47:27.652Z,2.95
2019-04-23T08:50:02.219Z,2.98
2019-04-23T08:52:32.623Z,3.00
2019-04-23T08:55:21.060Z,2.50
2019-04-23T08:57:31.953Z,3.22
2019-04-23T09:00:07.871Z,2.77
2019-04-23T09:02:40.423Z,2.45
2019-04-23T09:05:31.672Z,2.87
2019-04-23T09:07:45.154Z,3.10
2019-04-23T09:10:19.585Z,2.65
2019-04-23T09:13:32.108Z,2.85
2019-04-23T09:15:26.285Z,3.00
2019-04-23T09:22:51.751Z,3.37
2019-04-23T09:28:00.320Z,2.92
2019-04-23T09:30:32.545Z,3.17
2019-04-23T09:33:06.833Z,2.92
2019-04-23T09:35:35.970Z,3.00
2019-04-23T09:38:27.668Z,2.90
2019-04-23T09:41:15.454Z,3.15
2019-04-23T09:43:36.719Z,2.95
2019-04-23T09:46:25.753Z,3.00
2019-04-23T09:51:27.684Z,3.12
2019-04-23T09:53:51.308Z,2.98
2019-04-23T09:56:33.736Z,2.65
2019-04-23T09:59:01.874Z,2.72
2019-04-23T10:03:50.971Z,3.27
2019-04-23T10:06:18.211Z,3.02
2019-04-23T10:08:47.478Z,2.72
2019-04-23T10:11:13.919Z,2.87
2019-04-23T10:13:45.265Z,3.20
2019-04-23T10:16:18.827Z,2.90
2019-04-23T10:18:47.140Z,3.08
2019-04-23T10:21:17.578Z,2.65
2019-04-23T10:23:47.669Z,2.80
2019-04-23T10:26:18.012Z,3.70
2019-04-23T10:28:59.983Z,2.72
2019-04-23T10:31:31.326Z,3.00
2019-04-23T10:34:02.073Z,2.77
2019-04-23T10:36:34.089Z,3.12
2019-04-23T10:39:14.223Z,2.70
2019-04-23T10:41:40.540Z,2.95
2019-04-23T10:44:11.209Z,2.60
2019-04-23T10:47:16.474Z,2.67
2019-04-23T10:49:58.096Z,2.55
2019-04-23T10:54:50.899Z,2.92
2019-04-23T10:57:21.229Z,2.90
2019-04-23T11:00:14.094Z,2.83
2019-04-23T11:02:39.051Z,2.67
2019-04-23T11:15:41.166Z,2.90
2019-04-23T11:20:30.241Z,2.70
2019-04-23T11:22:51.878Z,3.27
2019-04-23T11:25:31.640Z,2.95
2019-04-23T11:33:09.210Z,2.67
2019-04-23T11:36:06.252Z,2.83
2019-04-23T11:38:41.392Z,2.55
2019-04-23T11:40:50.855Z,2.98
2019-04-23T11:43:14.877Z,2.80
2019-04-23T11:48:33.271Z,2.70
2019-04-23T11:51:20.943Z,3.10
2019-04-23T11:53:32.038Z,2.80
2019-04-23T12:03:53.942Z,2.37
2019-04-23T12:06:41.982Z,2.70
2019-04-23T12:14:42.214Z,2.67
2019-04-23T12:17:08.342Z,2.42
2019-04-23T12:25:00.148Z,2.95
2019-04-23T12:27:06.165Z,2.40
2019-04-23T12:29:37.703Z,2.95
2019-04-23T12:35:03.785Z,2.22
2019-04-23T12:40:17.544Z,2.50
2019-04-23T12:45:23.390Z,2.27
2019-04-23T12:55:38.961Z,2.42
2019-04-23T13:18:04.329Z,2.50
2019-04-23T13:20:39.946Z,2.17
2019-04-23T13:25:49.527Z,2.30
2019-04-23T13:28:21.045Z,2.37
2019-04-23T13:30:53.071Z,2.30
2019-04-23T13:36:01.714Z,2.40
2019-04-23T13:41:01.155Z,2.60
2019-04-23T13:43:36.375Z,2.27
2019-04-23T13:46:09.997Z,2.25
2019-04-23T13:48:24.351Z,2.17
2019-04-23T13:53:42.683Z,2.25
2019-04-23T13:56:15.264Z,2.50
2019-04-23T13:58:43.354Z,2.80
2019-04-23T14:03:57.733Z,2.37
2019-04-23T14:06:22.809Z,2.10
2019-04-23T14:09:01.046Z,2.42
2019-04-23T14:13:55.176Z,2.27
2019-04-23T14:16:29.642Z,1.92
2019-04-23T14:21:26.489Z,2.00
2019-04-23T14:26:32.590Z,2.00
2019-04-23T14:29:18.964Z,1.90
2019-04-23T14:31:28.347Z,2.25
2019-04-23T14:36:37.121Z,2.12
2019-04-23T14:39:25.517Z,2.20
2019-04-23T14:41:56.487Z,2.05
2019-04-23T14:44:25.830Z,2.15
2019-04-23T14:47:14.668Z,1.90
2019-04-23T14:52:06.733Z,2.00
2019-04-23T14:55:14.969Z,2.00
2019-04-23T14:57:22.932Z,1.98
2019-04-23T14:59:46.922Z,2.40
2019-04-23T15:02:19.475Z,2.00
2019-04-23T15:04:47.942Z,2.00
2019-04-23T15:07:25.846Z,2.00
2019-04-23T15:09:57.621Z,1.95
2019-04-23T15:15:10.488Z,1.92
2019-04-23T15:17:27.266Z,2.08
2019-04-23T15:20:17.785Z,2.30
2019-04-23T15:22:35.111Z,2.25
2019-04-23T15:25:23.424Z,1.92
2019-04-23T15:29:58.950Z,1.95
2019-04-23T15:32:56.634Z,2.10
2019-04-23T15:40:15.307Z,1.80
2019-04-23T15:42:57.665Z,1.92
2019-04-23T15:45:19.293Z,2.08
2019-04-23T15:47:56.505Z,2.05
2019-04-23T15:50:29.708Z,2.10
2019-04-23T16:00:25.547Z,1.90
2019-04-23T16:02:32.864Z,2.00
2019-04-23T16:05:03.779Z,1.75
2019-04-23T16:07:54.814Z,2.00
2019-04-23T16:10:41.774Z,1.98
2019-04-23T16:13:14.939Z,2.08
2019-04-23T16:15:45.411Z,1.92
2019-04-23T16:18:29.799Z,1.80
2019-04-23T16:20:58.502Z,2.10
2019-04-23T16:23:33.726Z,1.90
2019-04-23T16:25:58.352Z,1.70
2019-04-23T16:28:28.980Z,1.80
2019-04-23T16:31:06.992Z,1.70
2019-04-23T16:33:44.191Z,2.05
2019-04-23T16:36:16.719Z,1.92
2019-04-23T16:38:50.395Z,2.00
2019-04-23T16:41:16.828Z,1.90
2019-04-23T16:43:48.701Z,1.90
2019-04-23T16:46:21.495Z,1.90
2019-04-23T16:48:51.174Z,1.90
2019-04-23T16:51:25.278Z,1.70
2019-04-23T16:53:52.745Z,1.80
2019-04-23T16:56:56.041Z,1.75
2019-04-23T17:01:26.120Z,1.82
2019-04-23T17:04:08.247Z,2.27
2019-04-23T17:06:31.024Z,2.05
2019-04-23T17:08:59.906Z,1.70
2019-04-23T17:11:35.916Z,1.92
2019-04-23T17:14:11.591Z,1.90
2019-04-23T17:19:11.555Z,1.92
2019-04-23T17:21:48.908Z,1.98
2019-04-23T17:24:20.594Z,1.98
2019-04-23T17:26:48.060Z,2.00
2019-04-23T17:29:21.477Z,1.60
2019-04-23T17:31:49.105Z,1.70
2019-04-23T17:34:38.060Z,1.98
2019-04-23T17:37:13.963Z,2.20
2019-04-23T17:39:57.180Z,1.67
2019-04-23T17:42:24.403Z,1.87
2019-04-23T17:45:17.095Z,1.75
2019-04-23T17:47:35.569Z,1.60
2019-04-23T17:50:20.079Z,1.80
2019-04-23T17:55:10.903Z,1.80
2019-04-23T18:02:55.178Z,1.77
2019-04-23T18:05:23.578Z,1.60
2019-04-23T18:07:50.414Z,1.72
2019-04-23T18:10:27.584Z,1.60
2019-04-23T18:12:53.221Z,1.60
2019-04-23T18:15:21.957Z,1.77
2019-04-23T18:17:59.497Z,1.82
2019-04-23T18:20:44.004Z,1.70
2019-04-23T18:23:06.174Z,1.70
2019-04-23T18:28:10.360Z,1.85
2019-04-23T18:30:50.750Z,2.08
2019-04-23T18:36:05.061Z,2.08
2019-04-23T18:38:41.553Z,2.42
2019-04-23T18:43:56.421Z,2.27
2019-04-23T18:46:14.993Z,2.10
2019-04-23T18:48:49.830Z,2.20
2019-04-23T18:51:10.655Z,2.50
2019-04-23T18:56:15.385Z,2.25
2019-04-23T18:59:04.807Z,2.00
2019-04-23T19:01:28.007Z,2.37
2019-04-23T19:04:17.437Z,2.47
2019-04-23T19:09:23.870Z,2.58
2019-04-23T19:12:14.102Z,2.37
2019-04-23T19:19:48.610Z,2.70
2019-04-23T19:22:43.219Z,3.15
2019-04-23T19:24:48.468Z,2.87
2019-04-23T19:32:43.171Z,2.92
2019-04-23T19:35:07.143Z,4.37
2019-04-23T19:37:51.754Z,4.28
2019-04-23T19:42:43.911Z,3.62
2019-04-23T19:45:16.729Z,4.05
2019-04-23T19:47:56.868Z,3.70
2019-04-23T19:50:30.081Z,3.80
2019-04-23T19:53:04.009Z,4.78
2019-04-23T19:55:24.226Z,4.30
2019-04-23T19:57:58.033Z,4.03
2019-04-23T20:00:29.988Z,4.40
2019-04-23T20:03:13.268Z,4.53
2019-04-23T20:08:08.489Z,3.77
2019-04-23T20:10:37.469Z,4.12
2019-04-23T20:13:01.512Z,4.62
2019-04-23T20:15:53.544Z,3.85
2019-04-23T20:18:01.062Z,4.25
2019-04-23T20:20:52.701Z,3.92
2019-04-23T20:23:13.307Z,4.22
2019-04-23T20:31:12.176Z,4.10
2019-04-23T20:33:55.535Z,4.42
2019-04-23T20:41:21.057Z,4.85
2019-04-23T20:44:01.916Z,4.15
2019-04-23T20:48:53.142Z,5.00
2019-04-23T20:51:24.494Z,4.78
2019-04-23T20:54:02.185Z,4.95
2019-04-23T20:58:59.792Z,4.97
2019-04-23T21:02:00.568Z,4.72
2019-04-23T21:04:24.036Z,5.50
2019-04-23T21:07:03.203Z,4.95
2019-04-23T21:12:04.792Z,5.10
2019-04-23T21:14:48.532Z,5.25
2019-04-23T21:16:54.892Z,4.92
2019-04-23T21:19:42.127Z,5.12
2019-04-23T21:22:13.265Z,5.08
2019-04-23T21:24:42.745Z,5.60
2019-04-23T21:27:18.011Z,5.70
2019-04-23T21:29:53.577Z,5.37
2019-04-23T21:32:28.894Z,5.30
2019-04-23T21:34:58.165Z,5.35
2019-04-23T21:37:32.340Z,5.40
2019-04-23T21:41:10.498Z,5.42
2019-04-23T21:43:00.983Z,5.55
2019-04-23T21:45:35.344Z,6.92
2019-04-23T21:50:37.691Z,5.90
2019-04-23T21:53:04.372Z,5.65
2019-04-23T21:55:39.655Z,6.05
2019-04-23T21:58:10.617Z,6.12
2019-04-23T22:00:46.045Z,6.55
2019-04-23T22:05:52.841Z,6.45
2019-04-23T22:11:00.553Z,5.65
2019-04-23T22:13:29.515Z,6.10
2019-04-23T22:16:03.759Z,6.87
2019-04-23T22:18:26.531Z,6.45
2019-04-23T22:20:59.398Z,5.72
2019-04-23T22:23:30.574Z,5.75
2019-04-23T22:26:16.293Z,5.72
2019-04-23T22:28:40.818Z,6.30
2019-04-23T22:31:10.701Z,5.97
2019-04-23T22:33:39.361Z,6.08
2019-04-23T22:36:14.948Z,6.08
2019-04-23T22:38:33.926Z,6.30
2019-04-23T22:41:10.534Z,5.85
2019-04-23T22:43:46.610Z,5.55
2019-04-23T22:46:15.444Z,5.72
2019-04-23T22:49:04.041Z,5.90
2019-04-23T22:51:21.368Z,5.55
2019-04-23T22:54:02.783Z,6.08
2019-04-23T22:56:13.722Z,6.72
2019-04-23T22:59:01.954Z,6.25
2019-04-23T23:01:26.028Z,5.72
2019-04-23T23:03:59.005Z,6.17
2019-04-23T23:06:41.388Z,5.78
2019-04-23T23:11:46.795Z,5.35
2019-04-23T23:14:12.221Z,5.45
2019-04-23T23:19:21.729Z,5.70
2019-04-23T23:21:54.594Z,6.28
2019-04-23T23:24:13.661Z,5.85
2019-04-23T23:26:55.990Z,5.45
2019-04-23T23:29:21.926Z,5.75
2019-04-23T23:32:13.181Z,5.55
2019-04-23T23:34:25.794Z,5.70
2019-04-23T23:39:29.260Z,5.33
2019-04-23T23:41:56.433Z,5.33
2019-04-23T23:47:14.717Z,5.42
2019-04-23T23:49:34.474Z,5.55
2019-04-23T23:52:23.504Z,5.17
2019-04-23T23:54:39.310Z,5.20
